Observation data for Floydada on 01/20/2021      Previous  Date  Next       Current Mesonet Observations  Soil Data  Daily Summary Page  Observations in Plain Language
KFLS 200600Z 29004KT 02/M04 A3042 RMK A01 T00191041  RH  065%=      5-min Rain = 0
KFLS 200605Z 28004KT 02/M04 A3042 RMK A01 T00191041  RH  065%=      5-min Rain = 0
KFLS 200610Z 29004KT 02/M04 A3041 RMK A01 T00201042  RH  064%=      5-min Rain = 0
KFLS 200615Z 28004KT 02/M04 A3042 RMK A01 T00201041  RH  065%=      5-min Rain = 0
KFLS 200620Z 26004KT 02/M04 A3042 RMK A01 T00211040  RH  065%=      5-min Rain = 0
KFLS 200625Z 28002KT 02/M04 A3042 RMK A01 T00231040  RH  064%=      5-min Rain = 0
KFLS 200630Z 26002KT 02/M04 A3041 RMK A01 T00221042  RH  063%=      5-min Rain = 0
KFLS 200635Z 25003KT 02/M04 A3041 RMK A01 T00221044  RH  062%=      5-min Rain = 0
KFLS 200640Z 26004KT 02/M04 A3041 RMK A01 T00211044  RH  063%=      5-min Rain = 0
KFLS 200645Z 26004KT 02/M04 A3041 RMK A01 T00211043  RH  063%=      5-min Rain = 0
KFLS 200650Z 25003KT 02/M04 A3041 RMK A01 T00221043  RH  063%=      5-min Rain = 0
KFLS 200655Z 25003KT 02/M04 A304 RMK A01 T00241043  RH  062%=      5-min Rain = 0
KFLS 200700Z 25003KT 03/M04 A3041 RMK A01 T00251042  RH  062%=      5-min Rain = 0
KFLS 200705Z 26003KT 03/M04 A304 RMK A01 T00261044  RH  061%=      5-min Rain = 0
KFLS 200710Z 28003KT 03/M04 A304 RMK A01 T00261043  RH  061%=      5-min Rain = 0
KFLS 200715Z 28003KT 03/M04 A304 RMK A01 T00271044  RH  060%=      5-min Rain = 0
KFLS 200720Z 28003KT 03/M04 A304 RMK A01 T00271044  RH  060%=      5-min Rain = 0
KFLS 200725Z 28003KT 03/M04 A304 RMK A01 T00281043  RH  060%=      5-min Rain = 0
KFLS 200730Z 27004KT 03/M05 A304 RMK A01 T00291045  RH  059%=      5-min Rain = 0
KFLS 200735Z 26004KT 03/M05 A304 RMK A01 T00291045  RH  059%=      5-min Rain = 0
KFLS 200740Z 26004KT 03/M05 A304 RMK A01 T00291045  RH  059%=      5-min Rain = 0
KFLS 200745Z 25004KT 03/M05 A304 RMK A01 T00301045  RH  059%=      5-min Rain = 0
KFLS 200750Z 25004KT 03/M05 A304 RMK A01 T00301045  RH  058%=      5-min Rain = 0
KFLS 200755Z 26004KT 03/M05 A304 RMK A01 T00301046  RH  058%=      5-min Rain = 0
KFLS 200800Z 26004KT 03/M05 A304 RMK A01 T00311046  RH  058%=      5-min Rain = 0
KFLS 200805Z 27004KT 03/M05 A304 RMK A01 T00311046  RH  058%=      5-min Rain = 0
KFLS 200810Z 27004KT 03/M05 A304 RMK A01 T00311046  RH  058%=      5-min Rain = 0
KFLS 200815Z 27004KT 03/M05 A3041 RMK A01 T00311046  RH  058%=      5-min Rain = 0
KFLS 200820Z 26005KT 03/M05 A304 RMK A01 T00321046  RH  057%=      5-min Rain = 0
KFLS 200825Z 25005KT 03/M05 A3041 RMK A01 T00321047  RH  057%=      5-min Rain = 0
KFLS 200830Z 26005KT 03/M05 A3041 RMK A01 T00321047  RH  057%=      5-min Rain = 0
KFLS 200835Z 26005KT 03/M05 A3041 RMK A01 T00331047  RH  057%=      5-min Rain = 0
KFLS 200840Z 27005KT 03/M05 A3041 RMK A01 T00331046  RH  057%=      5-min Rain = 0
KFLS 200845Z 27006KT 03/M05 A304 RMK A01 T00331046  RH  057%=      5-min Rain = 0
KFLS 200850Z 27005KT 03/M05 A304 RMK A01 T00331046  RH  057%=      5-min Rain = 0
KFLS 200855Z 28005KT 03/M05 A304 RMK A01 T00331046  RH  057%=      5-min Rain = 0
KFLS 200900Z 28005KT 03/M05 A304 RMK A01 T00331046  RH  057%=      5-min Rain = 0
KFLS 200905Z 28005KT 03/M05 A304 RMK A01 T00331046  RH  057%=      5-min Rain = 0
KFLS 200910Z 29005KT 03/M05 A304 RMK A01 T00331046  RH  057%=      5-min Rain = 0
KFLS 200915Z 28004KT 03/M05 A304 RMK A01 T00341046  RH  057%=      5-min Rain = 0
KFLS 200920Z 28004KT 03/M05 A304 RMK A01 T00341046  RH  057%=      5-min Rain = 0
KFLS 200925Z 27003KT 03/M05 A304 RMK A01 T00341046  RH  056%=      5-min Rain = 0
KFLS 200930Z 26004KT 03/M05 A3039 RMK A01 T00341046  RH  056%=      5-min Rain = 0
KFLS 200935Z 27004KT 03/M05 A3039 RMK A01 T00341046  RH  057%=      5-min Rain = 0
KFLS 200940Z 28003KT 03/M04 A3039 RMK A01 T00331044  RH  057%=      5-min Rain = 0
KFLS 200945Z 27003KT 03/M04 A3039 RMK A01 T00331044  RH  058%=      5-min Rain = 0
KFLS 200950Z 26004KT 03/M04 A3039 RMK A01 T00331044  RH  058%=      5-min Rain = 0
KFLS 200955Z 27004KT 03/M04 A3039 RMK A01 T00321044  RH  058%=      5-min Rain = 0
KFLS 201000Z 26004KT 03/M04 A3039 RMK A01 T00321044  RH  058%=      5-min Rain = 0
KFLS 201005Z 27003KT 03/M04 A3038 RMK A01 T00321043  RH  059%=      5-min Rain = 0
KFLS 201010Z 27003KT 03/M04 A3037 RMK A01 T00311043  RH  059%=      5-min Rain = 0
KFLS 201015Z 27003KT 03/M04 A3037 RMK A01 T00311042  RH  059%=      5-min Rain = 0
KFLS 201020Z 27003KT 03/M04 A3037 RMK A01 T00321042  RH  059%=      5-min Rain = 0
KFLS 201025Z 27002KT 03/M04 A3037 RMK A01 T00321042  RH  059%=      5-min Rain = 0
KFLS 201030Z 26002KT 03/M04 A3037 RMK A01 T00321042  RH  059%=      5-min Rain = 0
KFLS 201035Z 26002KT 03/M04 A3036 RMK A01 T00321041  RH  059%=      5-min Rain = 0
KFLS 201040Z 23001KT 03/M04 A3035 RMK A01 T00321041  RH  060%=      5-min Rain = 0
KFLS 201045Z 20002KT 03/M04 A3035 RMK A01 T00321039  RH  060%=      5-min Rain = 0
KFLS 201050Z 20003KT 03/M04 A3034 RMK A01 T00311039  RH  061%=      5-min Rain = 0
KFLS 201055Z 22003KT 03/M04 A3034 RMK A01 T00321043  RH  059%=      5-min Rain = 0
KFLS 201100Z 21003KT 03/M04 A3034 RMK A01 T00331044  RH  058%=      5-min Rain = 0
KFLS 201105Z 21004KT 03/M05 A3034 RMK A01 T00331045  RH  057%=      5-min Rain = 0
KFLS 201110Z 20003KT 03/M05 A3033 RMK A01 T00331046  RH  057%=      5-min Rain = 0
KFLS 201115Z 20003KT 03/M05 A3033 RMK A01 T00321046  RH  057%=      5-min Rain = 0
KFLS 201120Z 20003KT 03/M05 A3033 RMK A01 T00311046  RH  058%=      5-min Rain = 0
KFLS 201125Z 21002KT 03/M05 A3032 RMK A01 T00301045  RH  058%=      5-min Rain = 0
KFLS 201130Z 20002KT 03/M05 A3031 RMK A01 T00301046  RH  058%=      5-min Rain = 0
KFLS 201135Z 20003KT 03/M05 A3031 RMK A01 T00291046  RH  058%=      5-min Rain = 0
KFLS 201140Z 20003KT 03/M05 A3031 RMK A01 T00271045  RH  060%=      5-min Rain = 0
KFLS 201145Z 22003KT 03/M05 A3031 RMK A01 T00271046  RH  060%=      5-min Rain = 0
KFLS 201150Z 23003KT 03/M05 A3031 RMK A01 T00281047  RH  059%=      5-min Rain = 0
KFLS 201155Z 22004KT 03/M05 A3031 RMK A01 T00271046  RH  059%=      5-min Rain = 0
KFLS 201200Z 22004KT 03/M05 A3031 RMK A01 T00281047  RH  058%=      5-min Rain = 0
KFLS 201205Z 22004KT 03/M05 A3031 RMK A01 T00301046  RH  058%=      5-min Rain = 0
KFLS 201210Z 22004KT 03/M05 A3031 RMK A01 T00301046  RH  058%=      5-min Rain = 0
KFLS 201215Z 22004KT 03/M05 A3031 RMK A01 T00291045  RH  059%=      5-min Rain = 0
KFLS 201220Z 22004KT 03/M05 A303 RMK A01 T00291046  RH  059%=      5-min Rain = 0
KFLS 201225Z 22003KT 03/M05 A303 RMK A01 T00281045  RH  059%=      5-min Rain = 0
KFLS 201230Z 22003KT 03/M05 A303 RMK A01 T00291045  RH  059%=      5-min Rain = 0
KFLS 201235Z 21003KT 03/M04 A3029 RMK A01 T00311044  RH  059%=      5-min Rain = 0
KFLS 201240Z 22004KT 03/M04 A303 RMK A01 T00311043  RH  059%=      5-min Rain = 0
KFLS 201245Z 23004KT 03/M04 A303 RMK A01 T00321043  RH  059%=      5-min Rain = 0
KFLS 201250Z 23004KT 03/M04 A303 RMK A01 T00321044  RH  058%=      5-min Rain = 0
KFLS 201255Z 23004KT 03/M04 A303 RMK A01 T00321044  RH  058%=      5-min Rain = 0
KFLS 201300Z 23005KT 03/M04 A303 RMK A01 T00321044  RH  058%=      5-min Rain = 0
KFLS 201305Z 22005KT 03/M04 A303 RMK A01 T00321044  RH  058%=      5-min Rain = 0
KFLS 201310Z 21006KT 03/M04 A303 RMK A01 T00321044  RH  058%=      5-min Rain = 0
KFLS 201315Z 21006KT 03/M04 A303 RMK A01 T00321044  RH  058%=      5-min Rain = 0
KFLS 201320Z 21006KT 03/M04 A303 RMK A01 T00321044  RH  058%=      5-min Rain = 0
KFLS 201325Z 21006KT 03/M04 A303 RMK A01 T00331044  RH  058%=      5-min Rain = 0
KFLS 201330Z 21006KT 03/M04 A3029 RMK A01 T00321043  RH  058%=      5-min Rain = 0
KFLS 201335Z 21006KT 03/M04 A3029 RMK A01 T00331043  RH  058%=      5-min Rain = 0
KFLS 201340Z 21007KT 03/M04 A3029 RMK A01 T00331042  RH  058%=      5-min Rain = 0
KFLS 201345Z 21007KT 03/M04 A3028 RMK A01 T00331043  RH  058%=      5-min Rain = 0
KFLS 201350Z 21007KT 03/M04 A3028 RMK A01 T00341044  RH  057%=      5-min Rain = 0
KFLS 201355Z 21007KT 03/M05 A3028 RMK A01 T00341046  RH  056%=      5-min Rain = 0
KFLS 201400Z 20006KT 04/M05 A3027 RMK A01 T00351047  RH  055%=      5-min Rain = 0
KFLS 201405Z 20006KT 04/M05 A3027 RMK A01 T00361048  RH  055%=      5-min Rain = 0
KFLS 201410Z 20007KT 04/M05 A3027 RMK A01 T00361048  RH  055%=      5-min Rain = 0
KFLS 201415Z 19007KT 04/M05 A3027 RMK A01 T00361048  RH  055%=      5-min Rain = 0
KFLS 201420Z 19006KT 04/M05 A3026 RMK A01 T00361048  RH  055%=      5-min Rain = 0
KFLS 201425Z 19007KT 04/M05 A3026 RMK A01 T00361047  RH  055%=      5-min Rain = 0
KFLS 201430Z 19007KT 04/M05 A3026 RMK A01 T00361046  RH  055%=      5-min Rain = 0
KFLS 201435Z 19006KT 04/M05 A3026 RMK A01 T00361045  RH  056%=      5-min Rain = 0
KFLS 201440Z 19008KT 04/M04 A3027 RMK A01 T00361044  RH  056%=      5-min Rain = 0
KFLS 201445Z 20008KT 04/M04 A3027 RMK A01 T00371044  RH  056%=      5-min Rain = 0
KFLS 201450Z 20009KT 04/M04 A3026 RMK A01 T00381043  RH  056%=      5-min Rain = 0
KFLS 201455Z 21008KT 04/M04 A3027 RMK A01 T00391044  RH  055%=      5-min Rain = 0
KFLS 201500Z 21007KT 04/M04 A3027 RMK A01 T00391044  RH  056%=      5-min Rain = 0
KFLS 201505Z 21007KT 04/M04 A3027 RMK A01 T00381044  RH  056%=      5-min Rain = 0
KFLS 201510Z 22008KT 04/M04 A3028 RMK A01 T00401043  RH  055%=      5-min Rain = 0
KFLS 201515Z 21008KT 04/M04 A3028 RMK A01 T00421043  RH  055%=      5-min Rain = 0
KFLS 201520Z 21009KT 04/M04 A3028 RMK A01 T00431043  RH  054%=      5-min Rain = 0
KFLS 201525Z 22009KT 04/M04 A3028 RMK A01 T00441042  RH  054%=      5-min Rain = 0
KFLS 201530Z 22010KT 04/M04 A3028 RMK A01 T00441043  RH  054%=      5-min Rain = 0
KFLS 201535Z 22010KT 04/M04 A3028 RMK A01 T00441044  RH  053%=      5-min Rain = 0
KFLS 201540Z 22010KT 05/M04 A3028 RMK A01 T00451044  RH  053%=      5-min Rain = 0
KFLS 201545Z 23010KT 05/M05 A3028 RMK A01 T00471045  RH  052%=      5-min Rain = 0
KFLS 201550Z 22010KT 05/M05 A3028 RMK A01 T00481048  RH  050%=      5-min Rain = 0
KFLS 201555Z 22009KT 05/M05 A3028 RMK A01 T00481048  RH  051%=      5-min Rain = 0
KFLS 201600Z 23011KT 05/M05 A3028 RMK A01 T00491049  RH  050%=      5-min Rain = 0
KFLS 201605Z 22010KT 05/M05 A3028 RMK A01 T00491049  RH  050%=      5-min Rain = 0
KFLS 201610Z 22009KT 05/M05 A3028 RMK A01 T00511049  RH  049%=      5-min Rain = 0
KFLS 201615Z 23010G15KT 05/M05 A3028 RMK A01 T00531048  RH  049%=      5-min Rain = 0
KFLS 201620Z 23011KT 05/M05 A3028 RMK A01 T00521050  RH  048%=      5-min Rain = 0
KFLS 201625Z 23013KT 05/M05 A3028 RMK A01 T00521051  RH  048%=      5-min Rain = 0
KFLS 201630Z 23012G17KT 05/M05 A3028 RMK A01 T00501051  RH  049%=      5-min Rain = 0
KFLS 201635Z 23010KT 05/M05 A3028 RMK A01 T00521051  RH  048%=      5-min Rain = 0
KFLS 201640Z 22014G19KT 05/M06 A3028 RMK A01 T00511057  RH  046%=      5-min Rain = 0
KFLS 201645Z 22013G19KT 05/M06 A3028 RMK A01 T00511057  RH  046%=      5-min Rain = 0
KFLS 201650Z 22013KT 05/M06 A3028 RMK A01 T00511058  RH  046%=      5-min Rain = 0
KFLS 201655Z 22014KT 06/M06 A3028 RMK A01 T00551057  RH  045%=      5-min Rain = 0
KFLS 201700Z 22014KT 05/M06 A3028 RMK A01 T00531056  RH  046%=      5-min Rain = 0
KFLS 201705Z 23012G17KT 05/M05 A3028 RMK A01 T00541053  RH  046%=      5-min Rain = 0
KFLS 201710Z 21013G18KT 06/M05 A3028 RMK A01 T00571050  RH  047%=      5-min Rain = 0
KFLS 201715Z 22013KT 06/M05 A3028 RMK A01 T00571050  RH  047%=      5-min Rain = 0
KFLS 201720Z 22014KT 06/M05 A3027 RMK A01 T00561050  RH  047%=      5-min Rain = 0
KFLS 201725Z 23016G21KT 06/M05 A3027 RMK A01 T00551049  RH  048%=      5-min Rain = 0
KFLS 201730Z 24015KT 06/M05 A3027 RMK A01 T00561048  RH  048%=      5-min Rain = 0
KFLS 201735Z 23014G19KT 05/M05 A3026 RMK A01 T00541048  RH  048%=      5-min Rain = 0
KFLS 201740Z 23014KT 05/M05 A3026 RMK A01 T00541047  RH  049%=      5-min Rain = 0
KFLS 201745Z 23014KT 06/M05 A3024 RMK A01 T00561045  RH  049%=      5-min Rain = 0
KFLS 201750Z 23014KT 06/M04 A3024 RMK A01 T00591043  RH  049%=      5-min Rain = 0
KFLS 201755Z 23013KT 07/M04 A3023 RMK A01 T00651041  RH  047%=      5-min Rain = 0
KFLS 201800Z 22013KT 07/M04 A3022 RMK A01 T00671040  RH  047%=      5-min Rain = 0
KFLS 201805Z 23014KT 07/M04 A3022 RMK A01 T00661043  RH  046%=      5-min Rain = 0
KFLS 201810Z 21013G18KT 07/M04 A3022 RMK A01 T00671039  RH  047%=      5-min Rain = 0
KFLS 201815Z 23015G20KT 07/M04 A3022 RMK A01 T00691037  RH  047%=      5-min Rain = 0
KFLS 201820Z 23016KT 07/M04 A3022 RMK A01 T00661035  RH  049%=      5-min Rain = 0
KFLS 201825Z 23016KT 07/M03 A3022 RMK A01 T00731032  RH  048%=      5-min Rain = 0
KFLS 201830Z 24015G20KT 08/M03 A3021 RMK A01 T00811030  RH  046%=      5-min Rain = 0
KFLS 201835Z 23015G20KT 08/M03 A3021 RMK A01 T00781030  RH  047%=      5-min Rain = 0
KFLS 201840Z 22015G20KT 08/M03 A302 RMK A01 T00781025  RH  049%=      5-min Rain = 0
KFLS 201845Z 23015G20KT 08/M03 A302 RMK A01 T00761025  RH  049%=      5-min Rain = 0
KFLS 201850Z 23014KT 08/M02 A302 RMK A01 T00811021  RH  049%=      5-min Rain = 0
KFLS 201855Z 23015G22KT 09/M02 A3019 RMK A01 T00851019  RH  048%=      5-min Rain = 0
KFLS 201900Z 23017KT 08/M02 A3019 RMK A01 T00821019  RH  049%=      5-min Rain = 0
KFLS 201905Z 23016KT 08/M02 A3018 RMK A01 T00801019  RH  050%=      5-min Rain = 0
KFLS 201910Z 24016G21KT 09/M02 A3018 RMK A01 T00851018  RH  049%=      5-min Rain = 0
KFLS 201915Z 23016G21KT 08/M02 A3018 RMK A01 T00821020  RH  049%=      5-min Rain = 0
KFLS 201920Z 24015KT 08/M02 A3018 RMK A01 T00841018  RH  049%=      5-min Rain = 0
KFLS 201925Z 24014KT 09/M02 A3017 RMK A01 T00851017  RH  049%=      5-min Rain = 0
KFLS 201930Z 24016G21KT 09/M02 A3016 RMK A01 T00941016  RH  047%=      5-min Rain = 0
KFLS 201935Z 24015G21KT 09/M02 A3016 RMK A01 T00941016  RH  047%=      5-min Rain = 0
KFLS 201940Z 23014G19KT 10/M02 A3016 RMK A01 T00961016  RH  046%=      5-min Rain = 0
KFLS 201945Z 23016G21KT 10/M02 A3015 RMK A01 T00961016  RH  046%=      5-min Rain = 0
KFLS 201950Z 24014G19KT 10/M01 A3015 RMK A01 T01041012  RH  045%=      5-min Rain = 0
KFLS 201955Z 23014G19KT 11/M01 A3014 RMK A01 T01071013  RH  044%=      5-min Rain = 0
KFLS 202000Z 25014KT 10/M01 A3014 RMK A01 T00971014  RH  046%=      5-min Rain = 0
KFLS 202005Z 24013KT 10/M01 A3014 RMK A01 T01031011  RH  045%=      5-min Rain = 0
KFLS 202010Z 24014G19KT 10/M01 A3013 RMK A01 T01041010  RH  046%=      5-min Rain = 0
KFLS 202015Z 24013KT 10/M01 A3013 RMK A01 T01011008  RH  047%=      5-min Rain = 0
KFLS 202020Z 24015KT 11/M01 A3013 RMK A01 T01051007  RH  046%=      5-min Rain = 0
KFLS 202025Z 25014G19KT 11/M01 A3013 RMK A01 T01091007  RH  045%=      5-min Rain = 0
KFLS 202030Z 24014G19KT 12/M01 A3012 RMK A01 T01191006  RH  043%=      5-min Rain = 0
KFLS 202035Z 24015KT 11/M01 A3012 RMK A01 T01141006  RH  044%=      5-min Rain = 0
KFLS 202040Z 24014G20KT 11/M01 A3012 RMK A01 T01101006  RH  045%=      5-min Rain = 0
KFLS 202045Z 24013KT 12/M00 A3012 RMK A01 T01211003  RH  043%=      5-min Rain = 0
KFLS 202050Z 24015G21KT 12/M01 A3012 RMK A01 T01201005  RH  042%=      5-min Rain = 0
KFLS 202055Z 24014G19KT 12/M00 A3011 RMK A01 T01231003  RH  042%=      5-min Rain = 0
KFLS 202100Z 24016G21KT 12/M00 A3011 RMK A01 T01231004  RH  042%=      5-min Rain = 0
KFLS 202105Z 23015G20KT 12/M01 A301 RMK A01 T01191005  RH  043%=      5-min Rain = 0
KFLS 202110Z 23013G20KT 12/M01 A301 RMK A01 T01201005  RH  043%=      5-min Rain = 0
KFLS 202115Z 23016KT 13/M00 A301 RMK A01 T01251004  RH  041%=      5-min Rain = 0
KFLS 202120Z 23013KT 13/M00 A301 RMK A01 T01291004  RH  040%=      5-min Rain = 0
KFLS 202125Z 22013G19KT 13/M00 A301 RMK A01 T01271004  RH  041%=      5-min Rain = 0
KFLS 202130Z 22014KT 13/M00 A3009 RMK A01 T01281003  RH  041%=      5-min Rain = 0
KFLS 202135Z 23015G21KT 13/M00 A3009 RMK A01 T01281003  RH  041%=      5-min Rain = 0
KFLS 202140Z 23014G19KT 13/M00 A3009 RMK A01 T01271003  RH  041%=      5-min Rain = 0
KFLS 202145Z 23015KT 13/M00 A3009 RMK A01 T01271003  RH  041%=      5-min Rain = 0
KFLS 202150Z 23014KT 13/M00 A3009 RMK A01 T01311001  RH  041%=      5-min Rain = 0
KFLS 202155Z 23015KT 13/M00 A3009 RMK A01 T01301001  RH  041%=      5-min Rain = 0
KFLS 202200Z 23014G19KT 13/M00 A3009 RMK A01 T01291001  RH  041%=      5-min Rain = 0
KFLS 202205Z 23015KT 13/00 A3008 RMK A01 T013000-0  RH  041%=      5-min Rain = 0
KFLS 202210Z 23014G19KT 13/00 A3008 RMK A01 T01310000  RH  041%=      5-min Rain = 0
KFLS 202215Z 23015KT 13/00 A3008 RMK A01 T01290001  RH  042%=      5-min Rain = 0
KFLS 202220Z 23013G19KT 13/00 A3008 RMK A01 T01300001  RH  042%=      5-min Rain = 0
KFLS 202225Z 23015G21KT 13/00 A3008 RMK A01 T01290003  RH  043%=      5-min Rain = 0
KFLS 202230Z 23013G18KT 13/00 A3007 RMK A01 T01330004  RH  042%=      5-min Rain = 0
KFLS 202235Z 22013G21KT 13/00 A3007 RMK A01 T01310003  RH  042%=      5-min Rain = 0
KFLS 202240Z 23014KT 13/00 A3007 RMK A01 T01300004  RH  043%=      5-min Rain = 0
KFLS 202245Z 22013G18KT 13/01 A3007 RMK A01 T01310006  RH  043%=      5-min Rain = 0
KFLS 202250Z 22015G20KT 13/01 A3007 RMK A01 T01330007  RH  043%=      5-min Rain = 0
KFLS 202255Z 23015KT 13/01 A3007 RMK A01 T01330006  RH  042%=      5-min Rain = 0
KFLS 202300Z 22013G19KT 13/00 A3007 RMK A01 T01300004  RH  043%=      5-min Rain = 0
KFLS 202305Z 23014G19KT 13/01 A3007 RMK A01 T01330006  RH  042%=      5-min Rain = 0
KFLS 202310Z 23015KT 13/01 A3007 RMK A01 T01320006  RH  043%=      5-min Rain = 0
KFLS 202315Z 23015G21KT 13/01 A3007 RMK A01 T01290005  RH  043%=      5-min Rain = 0
KFLS 202320Z 22013G18KT 13/01 A3006 RMK A01 T01270005  RH  044%=      5-min Rain = 0
KFLS 202325Z 22012G19KT 13/01 A3006 RMK A01 T01250005  RH  044%=      5-min Rain = 0
KFLS 202330Z 22011KT 12/00 A3006 RMK A01 T01230004  RH  045%=      5-min Rain = 0
KFLS 202335Z 22013G18KT 12/01 A3006 RMK A01 T01230005  RH  045%=      5-min Rain = 0
KFLS 202340Z 21012KT 12/01 A3005 RMK A01 T01200005  RH  046%=      5-min Rain = 0
KFLS 202345Z 21014G19KT 12/01 A3005 RMK A01 T01190005  RH  046%=      5-min Rain = 0
KFLS 202350Z 21014KT 12/01 A3005 RMK A01 T01180006  RH  046%=      5-min Rain = 0
KFLS 202355Z 21013KT 12/01 A3005 RMK A01 T01170005  RH  047%=      5-min Rain = 0
KFLS 210000Z 21013G18KT 12/01 A3005 RMK A01 T01150006  RH  047%=      5-min Rain = 0
KFLS 210005Z 21014KT 11/01 A3005 RMK A01 T01140006  RH  048%=      5-min Rain = 0
KFLS 210010Z 20012KT 11/01 A3005 RMK A01 T01100006  RH  049%=      5-min Rain = 0
KFLS 210015Z 20013KT 11/01 A3005 RMK A01 T01070007  RH  051%=      5-min Rain = 0
KFLS 210020Z 20013G19KT 11/01 A3005 RMK A01 T01060007  RH  051%=      5-min Rain = 0
KFLS 210025Z 20013KT 11/01 A3005 RMK A01 T01050007  RH  051%=      5-min Rain = 0
KFLS 210030Z 21012KT 11/01 A3005 RMK A01 T01060008  RH  051%=      5-min Rain = 0
KFLS 210035Z 21012KT 11/01 A3005 RMK A01 T01050008  RH  052%=      5-min Rain = 0
KFLS 210040Z 21013G19KT 10/01 A3005 RMK A01 T01040008  RH  052%=      5-min Rain = 0
KFLS 210045Z 20012KT 10/01 A3004 RMK A01 T01040008  RH  052%=      5-min Rain = 0
KFLS 210050Z 20012KT 10/01 A3004 RMK A01 T01010008  RH  053%=      5-min Rain = 0
KFLS 210055Z 21012KT 10/01 A3004 RMK A01 T01010008  RH  053%=      5-min Rain = 0
KFLS 210100Z 20012KT 10/01 A3004 RMK A01 T00990008  RH  054%=      5-min Rain = 0
KFLS 210105Z 20013G18KT 10/01 A3004 RMK A01 T00960008  RH  055%=      5-min Rain = 0
KFLS 210110Z 21013KT 10/01 A3004 RMK A01 T00950009  RH  055%=      5-min Rain = 0
KFLS 210115Z 21014KT 10/01 A3004 RMK A01 T00950010  RH  056%=      5-min Rain = 0
KFLS 210120Z 21015G20KT 10/01 A3004 RMK A01 T00960010  RH  056%=      5-min Rain = 0
KFLS 210125Z 21016G22KT 10/01 A3004 RMK A01 T00950011  RH  056%=      5-min Rain = 0
KFLS 210130Z 21015G21KT 09/01 A3004 RMK A01 T00940010  RH  056%=      5-min Rain = 0
KFLS 210135Z 21013G18KT 09/01 A3004 RMK A01 T00930011  RH  057%=      5-min Rain = 0
KFLS 210140Z 21014KT 09/01 A3004 RMK A01 T00920011  RH  058%=      5-min Rain = 0
KFLS 210145Z 21014G19KT 09/01 A3004 RMK A01 T00910011  RH  058%=      5-min Rain = 0
KFLS 210150Z 21015KT 09/01 A3004 RMK A01 T00890011  RH  059%=      5-min Rain = 0
KFLS 210155Z 21016KT 09/01 A3004 RMK A01 T00890011  RH  059%=      5-min Rain = 0
KFLS 210200Z 21017G22KT 09/01 A3004 RMK A01 T00890011  RH  059%=      5-min Rain = 0
KFLS 210205Z 21017KT 09/01 A3004 RMK A01 T00880011  RH  059%=      5-min Rain = 0
KFLS 210210Z 22015G21KT 09/01 A3004 RMK A01 T00880011  RH  059%=      5-min Rain = 0
KFLS 210215Z 22013G18KT 09/01 A3004 RMK A01 T00880011  RH  059%=      5-min Rain = 0
KFLS 210220Z 22013G18KT 09/01 A3005 RMK A01 T00890012  RH  059%=      5-min Rain = 0
KFLS 210225Z 22012KT 09/01 A3004 RMK A01 T00890011  RH  059%=      5-min Rain = 0
KFLS 210230Z 23012KT 09/01 A3004 RMK A01 T00880011  RH  059%=      5-min Rain = 0
KFLS 210235Z 22012KT 09/01 A3004 RMK A01 T00880011  RH  059%=      5-min Rain = 0
KFLS 210240Z 22013KT 09/01 A3004 RMK A01 T00880011  RH  059%=      5-min Rain = 0
KFLS 210245Z 22013G20KT 09/01 A3003 RMK A01 T00880012  RH  059%=      5-min Rain = 0
KFLS 210250Z 22012G17KT 09/01 A3004 RMK A01 T00880012  RH  060%=      5-min Rain = 0
KFLS 210255Z 22012G17KT 09/01 A3004 RMK A01 T00890012  RH  059%=      5-min Rain = 0
KFLS 210300Z 22012G19KT 09/01 A3004 RMK A01 T00890012  RH  059%=      5-min Rain = 0
KFLS 210305Z 22013KT 09/01 A3004 RMK A01 T00900012  RH  059%=      5-min Rain = 0
KFLS 210310Z 22012KT 09/01 A3004 RMK A01 T00900012  RH  059%=      5-min Rain = 0
KFLS 210315Z 22013G18KT 09/01 A3004 RMK A01 T00900012  RH  059%=      5-min Rain = 0
KFLS 210320Z 22013KT 09/01 A3004 RMK A01 T00900012  RH  059%=      5-min Rain = 0
KFLS 210325Z 23013KT 09/01 A3004 RMK A01 T00900012  RH  058%=      5-min Rain = 0
KFLS 210330Z 23012KT 09/01 A3004 RMK A01 T00900011  RH  058%=      5-min Rain = 0
KFLS 210335Z 22012G18KT 09/01 A3004 RMK A01 T00900011  RH  059%=      5-min Rain = 0
KFLS 210340Z 22013KT 09/01 A3004 RMK A01 T00890011  RH  059%=      5-min Rain = 0
KFLS 210345Z 22013G20KT 09/01 A3004 RMK A01 T00880011  RH  059%=      5-min Rain = 0
KFLS 210350Z 22015KT 09/01 A3004 RMK A01 T00890011  RH  059%=      5-min Rain = 0
KFLS 210355Z 22014G19KT 09/01 A3004 RMK A01 T00890010  RH  059%=      5-min Rain = 0
KFLS 210400Z 22015KT 09/01 A3004 RMK A01 T00890010  RH  058%=      5-min Rain = 0
KFLS 210405Z 23014G19KT 09/01 A3003 RMK A01 T00890010  RH  058%=      5-min Rain = 0
KFLS 210410Z 23012G18KT 09/01 A3003 RMK A01 T00890009  RH  058%=      5-min Rain = 0
KFLS 210415Z 24013KT 09/01 A3004 RMK A01 T00890009  RH  058%=      5-min Rain = 0
KFLS 210420Z 24012KT 09/01 A3004 RMK A01 T00880009  RH  058%=      5-min Rain = 0
KFLS 210425Z 23012KT 09/01 A3003 RMK A01 T00880009  RH  058%=      5-min Rain = 0
KFLS 210430Z 24013G18KT 09/01 A3003 RMK A01 T00890009  RH  058%=      5-min Rain = 0
KFLS 210435Z 24014G19KT 09/01 A3004 RMK A01 T00890009  RH  058%=      5-min Rain = 0
KFLS 210440Z 24014KT 09/01 A3004 RMK A01 T00890010  RH  058%=      5-min Rain = 0
KFLS 210445Z 24014KT 09/01 A3004 RMK A01 T00880010  RH  059%=      5-min Rain = 0
KFLS 210450Z 24014KT 09/01 A3004 RMK A01 T00870011  RH  059%=      5-min Rain = 0
KFLS 210455Z 24015KT 09/01 A3003 RMK A01 T00870011  RH  060%=      5-min Rain = 0
KFLS 210500Z 24016KT 09/01 A3003 RMK A01 T00870012  RH  060%=      5-min Rain = 0
KFLS 210505Z 24015KT 09/01 A3002 RMK A01 T00870012  RH  060%=      5-min Rain = 0
KFLS 210510Z 24014KT 09/01 A3003 RMK A01 T00870012  RH  060%=      5-min Rain = 0
KFLS 210515Z 24013KT 09/01 A3003 RMK A01 T00860012  RH  061%=      5-min Rain = 0
KFLS 210520Z 24013KT 09/01 A3003 RMK A01 T00860012  RH  061%=      5-min Rain = 0
KFLS 210525Z 24014KT 09/01 A3002 RMK A01 T00860013  RH  061%=      5-min Rain = 0
KFLS 210530Z 24013KT 09/01 A3002 RMK A01 T00860013  RH  061%=      5-min Rain = 0
KFLS 210535Z 24015G20KT 09/01 A3002 RMK A01 T00870013  RH  061%=      5-min Rain = 0
KFLS 210540Z 24015G20KT 09/01 A3002 RMK A01 T00880014  RH  060%=      5-min Rain = 0
KFLS 210545Z 24015G20KT 09/01 A3002 RMK A01 T00880014  RH  060%=      5-min Rain = 0
KFLS 210550Z 24015KT 09/01 A3002 RMK A01 T00870014  RH  061%=      5-min Rain = 0
KFLS 210555Z 24014KT 09/01 A3002 RMK A01 T00860013  RH  061%=      5-min Rain = 0

Page generated in 0.0085 seconds.